createdAt,value
2018-08-13T00:00:33.810Z,1005.85
2018-08-13T00:01:14.376Z,1005.88
2018-08-13T00:01:54.930Z,1005.86
2018-08-13T00:02:35.499Z,1005.82
2018-08-13T00:03:16.063Z,1005.84
2018-08-13T00:03:56.632Z,1005.83
2018-08-13T00:04:37.211Z,1005.8
2018-08-13T00:05:17.810Z,1005.84
2018-08-13T00:05:58.373Z,1005.8
2018-08-13T00:06:38.935Z,1005.8
2018-08-13T00:07:19.500Z,1005.78
2018-08-13T00:08:00.079Z,1005.8
2018-08-13T00:08:40.638Z,1005.76
2018-08-13T00:09:21.203Z,1005.78
2018-08-13T00:10:01.780Z,1005.75
2018-08-13T00:10:42.377Z,1005.76
2018-08-13T00:11:22.941Z,1005.8
2018-08-13T00:12:03.501Z,1005.77
2018-08-13T00:12:44.095Z,1005.72
2018-08-13T00:13:24.816Z,1005.72
2018-08-13T00:14:05.361Z,1005.75
2018-08-13T00:14:45.933Z,1005.74
2018-08-13T00:15:26.546Z,1005.73
2018-08-13T00:16:07.135Z,1005.73
2018-08-13T00:16:47.734Z,1005.68
2018-08-13T00:17:28.346Z,1005.69
2018-08-13T00:18:08.876Z,1005.71
2018-08-13T00:18:49.451Z,1005.69
2018-08-13T00:19:30.020Z,1005.69
2018-08-13T00:20:10.579Z,1005.68
2018-08-13T00:20:51.136Z,1005.69
2018-08-13T00:21:31.705Z,1005.63
2018-08-13T00:22:12.275Z,1005.66
2018-08-13T00:22:52.847Z,1005.64
2018-08-13T00:23:33.395Z,1005.63
2018-08-13T00:24:13.969Z,1005.65
2018-08-13T00:24:54.576Z,1005.62
2018-08-13T00:25:35.152Z,1005.64
2018-08-13T00:26:15.694Z,1005.61
2018-08-13T00:26:56.255Z,1005.6
2018-08-13T00:27:36.819Z,1005.64
2018-08-13T00:28:17.395Z,1005.61
2018-08-13T00:28:57.950Z,1005.6
2018-08-13T00:29:38.526Z,1005.58
2018-08-13T00:30:19.071Z,1005.59
2018-08-13T00:30:59.647Z,1005.6
2018-08-13T00:31:40.239Z,1005.63
2018-08-13T00:32:20.818Z,1005.61
2018-08-13T00:33:01.370Z,1005.59
2018-08-13T00:33:41.922Z,1005.57
2018-08-13T00:34:22.486Z,1005.59
2018-08-13T00:35:03.034Z,1005.62
2018-08-13T00:35:43.606Z,1005.6
2018-08-13T00:36:24.200Z,1005.56
2018-08-13T00:37:04.759Z,1005.57
2018-08-13T00:37:45.330Z,1005.55
2018-08-13T00:38:25.887Z,1005.54
2018-08-13T00:39:06.445Z,1005.56
2018-08-13T00:39:47.028Z,1005.6
2018-08-13T00:40:27.590Z,1005.55
2018-08-13T00:41:08.166Z,1005.61
2018-08-13T00:41:48.727Z,1005.57
2018-08-13T00:42:29.294Z,1005.6
2018-08-13T00:43:09.862Z,1005.62
2018-08-13T00:43:50.422Z,1005.62
2018-08-13T00:44:31.083Z,1005.57
2018-08-13T00:45:11.693Z,1005.6
2018-08-13T00:45:52.246Z,1005.61
2018-08-13T00:46:32.811Z,1005.58
2018-08-13T00:47:13.372Z,1005.58
2018-08-13T00:47:53.947Z,1005.59
2018-08-13T00:48:34.553Z,1005.58
2018-08-13T00:49:15.114Z,1005.58
2018-08-13T00:49:55.661Z,1005.59
2018-08-13T00:50:36.225Z,1005.55
2018-08-13T00:51:16.791Z,1005.52
2018-08-13T00:51:57.363Z,1005.5
2018-08-13T00:52:38.022Z,1005.51
2018-08-13T00:53:18.585Z,1005.56
2018-08-13T00:53:59.343Z,1005.51
2018-08-13T00:54:39.941Z,1005.56
2018-08-13T00:55:20.517Z,1005.51
2018-08-13T00:56:01.088Z,1005.52
2018-08-13T00:56:41.685Z,1005.54
2018-08-13T00:57:22.249Z,1005.51
2018-08-13T00:58:02.815Z,1005.52
2018-08-13T00:58:43.473Z,1005.48
2018-08-13T00:59:24.038Z,1005.46
2018-08-13T01:00:04.603Z,1005.47
2018-08-13T01:00:45.200Z,1005.46
2018-08-13T01:01:25.773Z,1005.43
2018-08-13T01:02:06.327Z,1005.45
2018-08-13T01:02:46.896Z,1005.46
2018-08-13T01:03:27.462Z,1005.47
2018-08-13T01:04:08.031Z,1005.43
2018-08-13T01:04:48.591Z,1005.42
2018-08-13T01:05:29.168Z,1005.44
2018-08-13T01:06:09.728Z,1005.41
2018-08-13T01:06:50.283Z,1005.41
2018-08-13T01:07:30.856Z,1005.39
2018-08-13T01:08:11.454Z,1005.38
2018-08-13T01:08:51.999Z,1005.4
2018-08-13T01:09:32.562Z,1005.37
2018-08-13T01:10:13.253Z,1005.37
2018-08-13T01:10:53.822Z,1005.36
2018-08-13T01:11:34.385Z,1005.4
2018-08-13T01:12:14.942Z,1005.37
2018-08-13T01:12:55.502Z,1005.39
2018-08-13T01:13:36.060Z,1005.38
2018-08-13T01:14:16.629Z,1005.39
2018-08-13T01:14:57.248Z,1005.33
2018-08-13T01:15:37.792Z,1005.37
2018-08-13T01:16:18.364Z,1005.34
2018-08-13T01:16:58.932Z,1005.37
2018-08-13T01:17:39.488Z,1005.35
2018-08-13T01:18:20.062Z,1005.39
2018-08-13T01:19:00.652Z,1005.39
2018-08-13T01:19:41.218Z,1005.38
2018-08-13T01:20:21.784Z,1005.32
2018-08-13T01:21:02.404Z,1005.35
2018-08-13T01:21:42.954Z,1005.34
2018-08-13T01:22:23.526Z,1005.33
2018-08-13T01:23:04.110Z,1005.31
2018-08-13T01:23:44.674Z,1005.31
2018-08-13T01:24:25.277Z,1005.32
2018-08-13T01:25:05.835Z,1005.32
2018-08-13T01:25:46.417Z,1005.3
2018-08-13T01:26:26.972Z,1005.28
2018-08-13T01:27:07.584Z,1005.27
2018-08-13T01:27:48.196Z,1005.29
2018-08-13T01:28:28.739Z,1005.27
2018-08-13T01:29:09.309Z,1005.27
2018-08-13T01:29:49.869Z,1005.25
2018-08-13T01:30:30.438Z,1005.25
2018-08-13T01:31:10.993Z,1005.21
2018-08-13T01:31:51.557Z,1005.2
2018-08-13T01:32:32.118Z,1005.19
2018-08-13T01:33:12.692Z,1005.19
2018-08-13T01:33:53.256Z,1005.23
2018-08-13T01:34:33.816Z,1005.19
2018-08-13T01:35:14.379Z,1005.16
2018-08-13T01:35:54.941Z,1005.15
2018-08-13T01:36:35.504Z,1005.15
2018-08-13T01:37:16.053Z,1005.14
2018-08-13T01:37:56.621Z,1005.15
2018-08-13T01:38:37.176Z,1005.14
2018-08-13T01:39:17.740Z,1005.1
2018-08-13T01:39:58.296Z,1005.11
2018-08-13T01:40:38.855Z,1005.1
2018-08-13T01:41:19.428Z,1005.09
2018-08-13T01:41:59.991Z,1005.11
2018-08-13T01:42:40.547Z,1005.11
2018-08-13T01:43:21.116Z,1005.09
2018-08-13T01:44:01.689Z,1005.07
2018-08-13T01:44:42.254Z,1005.06
2018-08-13T01:45:22.808Z,1005.03
2018-08-13T01:46:03.419Z,1005.08
2018-08-13T01:46:43.973Z,1005.04
2018-08-13T01:47:24.538Z,1005.03
2018-08-13T01:48:05.141Z,1005.04
2018-08-13T01:48:45.721Z,1005.02
2018-08-13T01:49:26.290Z,1004.99
2018-08-13T01:50:06.851Z,1005.01
2018-08-13T01:50:47.420Z,1005
2018-08-13T01:51:27.978Z,1004.99
2018-08-13T01:52:08.544Z,1004.99
2018-08-13T01:52:49.140Z,1004.97
2018-08-13T01:53:29.705Z,1004.95
2018-08-13T01:54:10.275Z,1004.96
2018-08-13T01:54:50.913Z,1004.94
2018-08-13T01:55:31.478Z,1004.91
2018-08-13T01:56:12.040Z,1004.95
2018-08-13T01:56:52.602Z,1004.89
2018-08-13T01:57:33.163Z,1004.94
2018-08-13T01:58:13.718Z,1004.9
2018-08-13T01:58:54.309Z,1004.9
2018-08-13T01:59:34.869Z,1004.92
2018-08-13T02:00:15.426Z,1004.91
2018-08-13T02:00:55.984Z,1004.89
2018-08-13T02:01:36.546Z,1004.92
2018-08-13T02:02:17.120Z,1004.88
2018-08-13T02:02:57.667Z,1004.86
2018-08-13T02:03:38.231Z,1004.89
2018-08-13T02:04:18.804Z,1004.86
2018-08-13T02:04:59.376Z,1004.88
2018-08-13T02:05:39.938Z,1004.87
2018-08-13T02:06:20.496Z,1004.9
2018-08-13T02:07:01.083Z,1004.91
2018-08-13T02:07:41.620Z,1004.89
2018-08-13T02:08:22.184Z,1004.88
2018-08-13T02:09:02.763Z,1004.84
2018-08-13T02:09:43.336Z,1004.85
2018-08-13T02:10:23.903Z,1004.85
2018-08-13T02:11:04.473Z,1004.85
2018-08-13T02:11:45.038Z,1004.8
2018-08-13T02:12:25.600Z,1004.84
2018-08-13T02:13:06.163Z,1004.82
2018-08-13T02:13:46.740Z,1004.82
2018-08-13T02:14:27.311Z,1004.76
2018-08-13T02:15:07.872Z,1004.79
2018-08-13T02:15:48.418Z,1004.78
2018-08-13T02:16:28.977Z,1004.77
2018-08-13T02:17:09.562Z,1004.76
2018-08-13T02:17:50.128Z,1004.76
2018-08-13T02:18:30.688Z,1004.78
2018-08-13T02:19:11.256Z,1004.71
2018-08-13T02:19:51.826Z,1004.72
2018-08-13T02:20:32.382Z,1004.71
2018-08-13T02:21:12.950Z,1004.72
2018-08-13T02:21:53.504Z,1004.76
2018-08-13T02:22:34.064Z,1004.71
2018-08-13T02:23:14.632Z,1004.69
2018-08-13T02:23:55.247Z,1004.7
2018-08-13T02:24:35.809Z,1004.69
2018-08-13T02:25:16.388Z,1004.66
2018-08-13T02:25:57.002Z,1004.71
2018-08-13T02:26:37.587Z,1004.68
2018-08-13T02:27:18.149Z,1004.67
2018-08-13T02:27:58.735Z,1004.68
2018-08-13T02:28:39.308Z,1004.65
2018-08-13T02:29:19.868Z,1004.64
2018-08-13T02:30:00.441Z,1004.68
2018-08-13T02:30:41.005Z,1004.72
2018-08-13T02:31:21.573Z,1004.67
2018-08-13T02:32:02.155Z,1004.63
2018-08-13T02:32:42.715Z,1004.61
2018-08-13T02:33:23.273Z,1004.59
2018-08-13T02:34:03.840Z,1004.59
2018-08-13T02:34:44.406Z,1004.59
2018-08-13T02:35:24.985Z,1004.6
2018-08-13T02:36:05.564Z,1004.59
2018-08-13T02:36:46.122Z,1004.62
2018-08-13T02:37:26.689Z,1004.59
2018-08-13T02:38:07.257Z,1004.61
2018-08-13T02:38:47.812Z,1004.62
2018-08-13T02:39:28.367Z,1004.59
2018-08-13T02:40:08.935Z,1004.66
2018-08-13T02:40:49.504Z,1004.65
2018-08-13T02:41:30.066Z,1004.66
2018-08-13T02:42:10.629Z,1004.68
2018-08-13T02:42:51.205Z,1004.69
2018-08-13T02:43:31.761Z,1004.67
2018-08-13T02:44:12.311Z,1004.65
2018-08-13T02:44:52.918Z,1004.64
2018-08-13T02:45:33.463Z,1004.69
2018-08-13T02:46:14.053Z,1004.68
2018-08-13T02:46:54.654Z,1004.67
2018-08-13T02:47:35.217Z,1004.67
2018-08-13T02:48:15.778Z,1004.68
2018-08-13T02:48:56.342Z,1004.65
2018-08-13T02:49:36.897Z,1004.7
2018-08-13T02:50:17.458Z,1004.69
2018-08-13T02:50:58.030Z,1004.65
2018-08-13T02:51:38.577Z,1004.63
2018-08-13T02:52:19.138Z,1004.68
2018-08-13T02:52:59.747Z,1004.65
2018-08-13T02:53:40.304Z,1004.68
2018-08-13T02:54:20.869Z,1004.66
2018-08-13T02:55:01.440Z,1004.61
2018-08-13T02:55:42.007Z,1004.65
2018-08-13T02:56:22.575Z,1004.68
2018-08-13T02:57:03.134Z,1004.64
2018-08-13T02:57:43.693Z,1004.61
2018-08-13T02:58:24.254Z,1004.62
2018-08-13T02:59:04.848Z,1004.58
2018-08-13T02:59:45.416Z,1004.62
2018-08-13T03:00:25.996Z,1004.59
2018-08-13T03:01:06.561Z,1004.55
2018-08-13T03:01:47.143Z,1004.59
2018-08-13T03:02:27.696Z,1004.58
2018-08-13T03:03:08.273Z,1004.55
2018-08-13T03:03:48.836Z,1004.54
2018-08-13T03:04:29.400Z,1004.54
2018-08-13T03:05:09.957Z,1004.52
2018-08-13T03:05:50.516Z,1004.51
2018-08-13T03:06:31.089Z,1004.51
2018-08-13T03:07:11.663Z,1004.53
2018-08-13T03:07:52.228Z,1004.49
2018-08-13T03:08:32.879Z,1004.51
2018-08-13T03:09:13.455Z,1004.47
2018-08-13T03:09:54.032Z,1004.49
2018-08-13T03:10:34.624Z,1004.48
2018-08-13T03:11:15.182Z,1004.49
2018-08-13T03:11:55.744Z,1004.48
2018-08-13T03:12:36.295Z,1004.44
2018-08-13T03:13:16.856Z,1004.49
2018-08-13T03:13:57.407Z,1004.47
2018-08-13T03:14:37.984Z,1004.45
2018-08-13T03:15:18.553Z,1004.46
2018-08-13T03:15:59.115Z,1004.47
2018-08-13T03:16:39.676Z,1004.44
2018-08-13T03:17:20.238Z,1004.46
2018-08-13T03:18:00.793Z,1004.49
2018-08-13T03:18:41.360Z,1004.42
2018-08-13T03:19:21.930Z,1004.46
2018-08-13T03:20:02.488Z,1004.44
2018-08-13T03:20:43.049Z,1004.4
2018-08-13T03:21:23.608Z,1004.43
2018-08-13T03:22:04.176Z,1004.4
2018-08-13T03:22:44.729Z,1004.41
2018-08-13T03:23:25.301Z,1004.43
2018-08-13T03:24:05.856Z,1004.45
2018-08-13T03:24:46.418Z,1004.41
2018-08-13T03:25:26.977Z,1004.42
2018-08-13T03:26:07.579Z,1004.37
2018-08-13T03:26:48.161Z,1004.37
2018-08-13T03:27:28.719Z,1004.38
2018-08-13T03:28:09.280Z,1004.4
2018-08-13T03:28:49.844Z,1004.31
2018-08-13T03:29:30.405Z,1004.34
2018-08-13T03:30:10.974Z,1004.3
2018-08-13T03:30:51.537Z,1004.3
2018-08-13T03:31:32.090Z,1004.28
2018-08-13T03:32:12.689Z,1004.3
2018-08-13T03:32:53.262Z,1004.22
2018-08-13T03:33:33.829Z,1004.24
2018-08-13T03:34:14.398Z,1004.22
2018-08-13T03:34:54.952Z,1004.24
2018-08-13T03:35:35.534Z,1004.23
2018-08-13T03:36:16.086Z,1004.17
2018-08-13T03:36:56.650Z,1004.17
2018-08-13T03:37:37.211Z,1004.17
2018-08-13T03:38:17.790Z,1004.19
2018-08-13T03:38:58.385Z,1004.16
2018-08-13T03:39:38.952Z,1004.2
2018-08-13T03:40:19.514Z,1004.18
2018-08-13T03:41:00.069Z,1004.13
2018-08-13T03:41:40.655Z,1004.18
2018-08-13T03:42:21.218Z,1004.14
2018-08-13T03:43:01.779Z,1004.08
2018-08-13T03:43:42.333Z,1004.14
2018-08-13T03:44:22.896Z,1004.08
2018-08-13T03:45:03.474Z,1004.1
2018-08-13T03:45:44.046Z,1004.04
2018-08-13T03:46:24.630Z,1004.01
2018-08-13T03:47:05.203Z,1004.08
2018-08-13T03:47:45.772Z,1004.08
2018-08-13T03:48:26.327Z,1004.04
2018-08-13T03:49:06.909Z,1004.08
2018-08-13T03:49:47.494Z,1004.02
2018-08-13T03:50:28.057Z,1004.04
2018-08-13T03:51:08.614Z,1004.03
2018-08-13T03:51:49.183Z,1004.02
2018-08-13T03:52:29.749Z,1004
2018-08-13T03:53:10.322Z,1004.06
2018-08-13T03:53:50.959Z,1004
2018-08-13T03:54:31.465Z,1004.01
2018-08-13T03:55:12.050Z,1004
2018-08-13T03:55:52.619Z,1004
2018-08-13T03:56:33.178Z,1004.04
2018-08-13T03:57:13.752Z,1004.05
2018-08-13T03:57:54.312Z,1004.04
2018-08-13T03:58:34.864Z,1004.01
2018-08-13T03:59:15.439Z,1004.01
2018-08-13T03:59:55.993Z,1003.98
2018-08-13T04:00:36.567Z,1004
2018-08-13T04:01:17.133Z,1003.99
2018-08-13T04:01:57.698Z,1003.99
2018-08-13T04:02:38.260Z,1003.97
2018-08-13T04:03:18.827Z,1003.97
2018-08-13T04:03:59.390Z,1003.98
2018-08-13T04:04:39.953Z,1003.99
2018-08-13T04:05:20.509Z,1004.01
2018-08-13T04:06:01.083Z,1004.02
2018-08-13T04:06:41.653Z,1004.03
2018-08-13T04:07:22.214Z,1004.02
2018-08-13T04:08:02.773Z,1004.03
2018-08-13T04:08:43.337Z,1004.01
2018-08-13T04:09:23.941Z,1004.02
2018-08-13T04:10:04.502Z,1003.99
2018-08-13T04:10:45.074Z,1003.98
2018-08-13T04:11:25.627Z,1003.96
2018-08-13T04:12:06.193Z,1003.94
2018-08-13T04:12:46.825Z,1004.01
2018-08-13T04:13:27.384Z,1003.96
2018-08-13T04:14:07.952Z,1003.94
2018-08-13T04:14:48.503Z,1003.99
2018-08-13T04:15:29.069Z,1003.98
2018-08-13T04:16:09.629Z,1003.98
2018-08-13T04:16:50.204Z,1003.98
2018-08-13T04:17:30.778Z,1004.01
2018-08-13T04:18:11.343Z,1004.01
2018-08-13T04:18:51.913Z,1004.01
2018-08-13T04:19:32.468Z,1004.04
2018-08-13T04:20:13.022Z,1004.05
2018-08-13T04:20:53.579Z,1004.02
2018-08-13T04:21:34.145Z,1004.03
2018-08-13T04:22:14.748Z,1004.02
2018-08-13T04:22:55.328Z,1004.02
2018-08-13T04:23:35.896Z,1004.04
2018-08-13T04:24:16.479Z,1004.02
2018-08-13T04:24:57.036Z,1004.05
2018-08-13T04:25:37.603Z,1004
2018-08-13T04:26:18.237Z,1004.02
2018-08-13T04:26:58.821Z,1004
2018-08-13T04:27:39.377Z,1003.99
2018-08-13T04:28:19.977Z,1004.01
2018-08-13T04:29:00.540Z,1004.01
2018-08-13T04:29:41.107Z,1003.99
2018-08-13T04:30:21.665Z,1003.96
2018-08-13T04:31:02.234Z,1004
2018-08-13T04:31:42.838Z,1003.94
2018-08-13T04:32:23.402Z,1003.96
2018-08-13T04:33:03.960Z,1003.9
2018-08-13T04:33:44.537Z,1003.91
2018-08-13T04:34:25.070Z,1003.92
2018-08-13T04:35:05.630Z,1003.91
2018-08-13T04:35:46.195Z,1003.9
2018-08-13T04:36:26.753Z,1003.92
2018-08-13T04:37:07.341Z,1003.94
2018-08-13T04:37:47.900Z,1003.94
2018-08-13T04:38:28.568Z,1003.95
2018-08-13T04:39:09.072Z,1003.94
2018-08-13T04:39:49.648Z,1003.95
2018-08-13T04:40:30.206Z,1003.98
2018-08-13T04:41:10.781Z,1003.97
2018-08-13T04:41:51.324Z,1003.94
2018-08-13T04:42:31.895Z,1003.91
2018-08-13T04:43:12.449Z,1003.98
2018-08-13T04:43:53.017Z,1003.98
2018-08-13T04:44:33.560Z,1004.01
2018-08-13T04:45:14.129Z,1003.97
2018-08-13T04:45:54.694Z,1004
2018-08-13T04:46:35.255Z,1004
2018-08-13T04:47:15.815Z,1004
2018-08-13T04:47:56.389Z,1003.97
2018-08-13T04:48:36.969Z,1003.97
2018-08-13T04:49:17.532Z,1003.97
2018-08-13T04:49:58.313Z,1003.99
2018-08-13T04:50:38.895Z,1003.99
2018-08-13T04:51:19.453Z,1004.03
2018-08-13T04:52:00.031Z,1004.07
2018-08-13T04:52:40.583Z,1004.03
2018-08-13T04:53:21.132Z,1004.07
2018-08-13T04:54:01.797Z,1004.08
2018-08-13T04:54:42.354Z,1004.09
2018-08-13T04:55:22.971Z,1004.09
2018-08-13T04:56:03.526Z,1004.08
2018-08-13T04:56:44.102Z,1004.07
2018-08-13T04:57:24.669Z,1004.1
2018-08-13T04:58:05.226Z,1004.08
2018-08-13T04:58:45.791Z,1004.07
2018-08-13T04:59:26.351Z,1004.11
2018-08-13T05:00:06.924Z,1004.09
2018-08-13T05:00:47.492Z,1004.1
2018-08-13T05:01:28.072Z,1004.08
2018-08-13T05:02:08.637Z,1004.1
2018-08-13T05:02:49.202Z,1004.04
2018-08-13T05:03:29.765Z,1004.09
2018-08-13T05:04:10.332Z,1004.13
2018-08-13T05:04:50.888Z,1004.09
2018-08-13T05:05:31.442Z,1004.1
2018-08-13T05:06:11.989Z,1004.1
2018-08-13T05:06:52.576Z,1004.11
2018-08-13T05:07:33.143Z,1004.1
2018-08-13T05:08:13.702Z,1004.14
2018-08-13T05:08:54.263Z,1004.12
2018-08-13T05:09:34.815Z,1004.14
2018-08-13T05:10:15.392Z,1004.14
2018-08-13T05:10:55.953Z,1004.15
2018-08-13T05:11:36.527Z,1004.15
2018-08-13T05:12:17.085Z,1004.14
2018-08-13T05:12:57.650Z,1004.15
2018-08-13T05:13:38.213Z,1004.12
2018-08-13T05:14:18.790Z,1004.15
2018-08-13T05:14:59.372Z,1004.14
2018-08-13T05:15:39.946Z,1004.16
2018-08-13T05:16:20.505Z,1004.18
2018-08-13T05:17:01.077Z,1004.19
2018-08-13T05:17:41.677Z,1004.2
2018-08-13T05:18:22.237Z,1004.18
2018-08-13T05:19:02.807Z,1004.2
2018-08-13T05:19:43.387Z,1004.17
2018-08-13T05:20:23.957Z,1004.18
2018-08-13T05:21:04.509Z,1004.16
2018-08-13T05:21:45.075Z,1004.15
2018-08-13T05:22:25.629Z,1004.17
2018-08-13T05:23:06.187Z,1004.13
2018-08-13T05:23:46.735Z,1004.12
2018-08-13T05:24:27.298Z,1004.11
2018-08-13T05:25:08.374Z,1004.14
2018-08-13T05:25:48.939Z,1004.13
2018-08-13T05:26:29.497Z,1004.12
2018-08-13T05:27:10.065Z,1004.06
2018-08-13T05:27:50.627Z,1004.1
2018-08-13T05:28:31.222Z,1004.09
2018-08-13T05:29:11.782Z,1004.12
2018-08-13T05:29:52.390Z,1004.13
2018-08-13T05:30:32.904Z,1004.13
2018-08-13T05:31:13.475Z,1004.11
2018-08-13T05:31:54.040Z,1004.1
2018-08-13T05:32:34.605Z,1004.15
2018-08-13T05:33:15.157Z,1004.2
2018-08-13T05:33:55.720Z,1004.18
2018-08-13T05:34:36.281Z,1004.14
2018-08-13T05:35:16.850Z,1004.15
2018-08-13T05:35:57.413Z,1004.18
2018-08-13T05:36:37.973Z,1004.18
2018-08-13T05:37:18.542Z,1004.14
2018-08-13T05:37:59.102Z,1004.11
2018-08-13T05:38:39.666Z,1004.15
2018-08-13T05:39:20.224Z,1004.13
2018-08-13T05:40:00.780Z,1004.11
2018-08-13T05:40:41.338Z,1004.14
2018-08-13T05:41:21.947Z,1004.15
2018-08-13T05:42:02.513Z,1004.15
2018-08-13T05:42:43.073Z,1004.15
2018-08-13T05:43:23.625Z,1004.15
2018-08-13T05:44:04.196Z,1004.17
2018-08-13T05:44:44.757Z,1004.21
2018-08-13T05:45:25.323Z,1004.19
2018-08-13T05:46:05.884Z,1004.2
2018-08-13T05:46:46.447Z,1004.18
2018-08-13T05:47:27.016Z,1004.14
2018-08-13T05:48:07.581Z,1004.18
2018-08-13T05:48:48.139Z,1004.14
2018-08-13T05:49:28.695Z,1004.14
2018-08-13T05:50:09.263Z,1004.17
2018-08-13T05:50:49.835Z,1004.18
2018-08-13T05:51:30.439Z,1004.19
2018-08-13T05:52:11.011Z,1004.22
2018-08-13T05:52:51.802Z,1004.28
2018-08-13T05:53:32.707Z,1004.26
2018-08-13T05:54:13.765Z,1004.25
2018-08-13T05:54:54.370Z,1004.26
2018-08-13T05:55:34.948Z,1004.28
2018-08-13T05:56:15.511Z,1004.29
2018-08-13T05:56:57.219Z,1004.29
2018-08-13T05:57:37.776Z,1004.32
2018-08-13T05:58:18.332Z,1004.26
2018-08-13T05:58:58.923Z,1004.26
2018-08-13T05:59:39.489Z,1004.32
2018-08-13T06:00:20.082Z,1004.45
2018-08-13T06:01:00.653Z,1004.5
2018-08-13T06:01:41.225Z,1004.44
2018-08-13T06:02:21.787Z,1004.36
2018-08-13T06:03:02.387Z,1004.31
2018-08-13T06:03:42.951Z,1004.33
2018-08-13T06:04:23.567Z,1004.28
2018-08-13T06:05:04.128Z,1004.27
2018-08-13T06:05:44.691Z,1004.26
2018-08-13T06:06:25.263Z,1004.22
2018-08-13T06:07:05.850Z,1004.22
2018-08-13T06:07:46.413Z,1004.23
2018-08-13T06:08:26.977Z,1004.21
2018-08-13T06:09:07.535Z,1004.24
2018-08-13T06:09:48.103Z,1004.29
2018-08-13T06:10:28.648Z,1004.25
2018-08-13T06:11:09.260Z,1004.24
2018-08-13T06:11:49.822Z,1004.26
2018-08-13T06:12:30.387Z,1004.24
2018-08-13T06:13:10.959Z,1004.24
2018-08-13T06:13:51.533Z,1004.22
2018-08-13T06:14:32.100Z,1004.23
2018-08-13T06:15:12.684Z,1004.19
2018-08-13T06:15:53.242Z,1004.23
2018-08-13T06:16:33.807Z,1004.24
2018-08-13T06:17:14.392Z,1004.24
2018-08-13T06:17:54.951Z,1004.24
2018-08-13T06:18:35.525Z,1004.18
2018-08-13T06:19:16.095Z,1004.24
2018-08-13T06:19:56.666Z,1004.24
2018-08-13T06:20:37.231Z,1004.21
2018-08-13T06:21:17.796Z,1004.19
2018-08-13T06:21:58.369Z,1004.25
2018-08-13T06:22:38.936Z,1004.25
2018-08-13T06:23:19.516Z,1004.26
2018-08-13T06:24:00.092Z,1004.19
2018-08-13T06:24:40.647Z,1004.23
2018-08-13T06:25:21.244Z,1004.25
2018-08-13T06:26:01.809Z,1004.24
2018-08-13T06:26:42.377Z,1004.21
2018-08-13T06:27:22.942Z,1004.26
2018-08-13T06:28:03.665Z,1004.25
2018-08-13T06:28:44.269Z,1004.27
2018-08-13T06:29:24.869Z,1004.26
2018-08-13T06:30:05.433Z,1004.25
2018-08-13T06:30:45.994Z,1004.28
2018-08-13T06:31:26.588Z,1004.29
2018-08-13T06:32:07.267Z,1004.27
2018-08-13T06:32:47.854Z,1004.27
2018-08-13T06:33:28.409Z,1004.27
2018-08-13T06:34:09.954Z,1004.29
2018-08-13T06:34:50.399Z,1004.27
2018-08-13T06:35:30.972Z,1004.29
2018-08-13T06:36:11.566Z,1004.26
2018-08-13T06:36:52.138Z,1004.29
2018-08-13T06:37:32.866Z,1004.25
2018-08-13T06:38:13.446Z,1004.21
2018-08-13T06:38:54.021Z,1004.25
2018-08-13T06:39:34.610Z,1004.21
2018-08-13T06:40:15.190Z,1004.24
2018-08-13T06:40:55.768Z,1004.21
2018-08-13T06:41:36.371Z,1004.19
2018-08-13T06:42:16.990Z,1004.21
2018-08-13T06:42:57.580Z,1004.21
2018-08-13T06:43:38.151Z,1004.2
2018-08-13T06:44:18.738Z,1004.2
2018-08-13T06:44:59.366Z,1004.28
2018-08-13T06:45:39.918Z,1004.21
2018-08-13T06:46:20.501Z,1004.22
2018-08-13T06:47:01.153Z,1004.25
2018-08-13T06:47:41.730Z,1004.25
2018-08-13T06:48:22.303Z,1004.25
2018-08-13T06:49:02.870Z,1004.23
2018-08-13T06:49:43.432Z,1004.23
2018-08-13T06:50:24.011Z,1004.23
2018-08-13T06:51:04.575Z,1004.23
2018-08-13T06:51:45.144Z,1004.21
2018-08-13T06:52:25.715Z,1004.2
2018-08-13T06:53:06.300Z,1004.21
2018-08-13T06:53:46.947Z,1004.19
2018-08-13T06:54:27.515Z,1004.19
2018-08-13T06:55:08.080Z,1004.22
2018-08-13T06:55:48.669Z,1004.17
2018-08-13T06:56:29.246Z,1004.18
2018-08-13T06:57:09.809Z,1004.16
2018-08-13T06:57:50.389Z,1004.18
2018-08-13T06:58:30.944Z,1004.17
2018-08-13T06:59:11.594Z,1004.17
2018-08-13T06:59:52.204Z,1004.13
2018-08-13T07:00:32.756Z,1004.11
2018-08-13T07:01:13.337Z,1004.11
2018-08-13T07:01:53.909Z,1004.1
2018-08-13T07:02:34.530Z,1004.09
2018-08-13T07:03:15.223Z,1004.12
2018-08-13T07:03:55.802Z,1004.1
2018-08-13T07:04:36.377Z,1004.09
2018-08-13T07:05:16.954Z,1004.12
2018-08-13T07:05:57.524Z,1004.1
2018-08-13T07:06:38.118Z,1004.13
2018-08-13T07:07:18.691Z,1004.13
2018-08-13T07:07:59.260Z,1004.19
2018-08-13T07:08:39.837Z,1004.16
2018-08-13T07:09:20.413Z,1004.16
2018-08-13T07:10:01.006Z,1004.16
2018-08-13T07:10:42.157Z,1004.18
2018-08-13T07:11:22.734Z,1004.18
2018-08-13T07:12:03.452Z,1004.2
2018-08-13T07:12:44.244Z,1004.19
2018-08-13T07:13:25.111Z,1004.17
2018-08-13T07:14:05.660Z,1004.16
2018-08-13T07:14:46.707Z,1004.15
2018-08-13T07:15:27.664Z,1004.17
2018-08-13T07:16:08.327Z,1004.17
2018-08-13T07:16:48.907Z,1004.13
2018-08-13T07:17:29.719Z,1004.15
2018-08-13T07:18:10.442Z,1004.15
2018-08-13T07:18:51.022Z,1004.13
2018-08-13T07:19:31.627Z,1004.1
2018-08-13T07:20:12.319Z,1004.12
2018-08-13T07:20:52.844Z,1004.11
2018-08-13T07:21:33.451Z,1004.13
2018-08-13T07:22:14.041Z,1004.09
2018-08-13T07:22:54.881Z,1004.09
2018-08-13T07:23:35.725Z,1004.03
2018-08-13T07:24:17.663Z,1003.99
2018-08-13T07:24:58.333Z,1003.99
2018-08-13T07:25:38.974Z,1004.04
2018-08-13T07:26:19.813Z,1004.05
2018-08-13T07:27:00.606Z,1004.08
2018-08-13T07:27:41.936Z,1004.03
2018-08-13T07:28:23.166Z,1003.99
2018-08-13T07:29:03.794Z,1004.03
2018-08-13T07:29:44.639Z,1004
2018-08-13T07:30:26.100Z,1004.02
2018-08-13T07:31:06.857Z,1004
2018-08-13T07:31:47.442Z,1004.05
2018-08-13T07:32:28.171Z,1004.03
2018-08-13T07:33:09.111Z,1004.04
2018-08-13T07:33:49.802Z,1003.99
2018-08-13T07:34:30.249Z,1003.96
2018-08-13T07:35:10.999Z,1003.99
2018-08-13T07:35:51.779Z,1003.93
2018-08-13T07:36:32.493Z,1003.94
2018-08-13T07:37:13.138Z,1003.95
2018-08-13T07:37:53.790Z,1003.93
2018-08-13T07:38:34.381Z,1003.93
2018-08-13T07:39:14.959Z,1003.86
2018-08-13T07:39:55.522Z,1003.91
2018-08-13T07:40:36.081Z,1003.89
2018-08-13T07:41:16.658Z,1003.88
2018-08-13T07:41:57.238Z,1003.86
2018-08-13T07:42:37.840Z,1003.86
2018-08-13T07:43:18.429Z,1003.86
2018-08-13T07:43:58.999Z,1003.84
2018-08-13T07:44:39.598Z,1003.86
2018-08-13T07:45:20.168Z,1003.85
2018-08-13T07:46:00.741Z,1003.84
2018-08-13T07:46:41.313Z,1003.83
2018-08-13T07:47:21.928Z,1003.87
2018-08-13T07:48:02.521Z,1003.83
2018-08-13T07:48:43.690Z,1003.88
2018-08-13T07:49:24.295Z,1003.87
2018-08-13T07:50:04.926Z,1003.87
2018-08-13T07:50:45.484Z,1003.9
2018-08-13T07:51:26.125Z,1003.92
2018-08-13T07:52:06.826Z,1003.89
2018-08-13T07:52:47.443Z,1003.91
2018-08-13T07:53:28.107Z,1003.89
2018-08-13T07:54:08.924Z,1003.82
2018-08-13T07:54:49.484Z,1003.84
2018-08-13T07:55:30.067Z,1003.81
2018-08-13T07:56:10.677Z,1003.81
2018-08-13T07:56:51.253Z,1003.82
2018-08-13T07:57:31.958Z,1003.85
2018-08-13T07:58:12.553Z,1003.82
2018-08-13T07:58:53.112Z,1003.87
2018-08-13T07:59:33.701Z,1003.9
2018-08-13T08:00:14.303Z,1003.89
2018-08-13T08:00:54.885Z,1003.93
2018-08-13T08:01:35.446Z,1003.98
2018-08-13T08:02:16.031Z,1003.96
2018-08-13T08:02:56.608Z,1003.94
2018-08-13T08:03:37.174Z,1004
2018-08-13T08:04:17.755Z,1003.97
2018-08-13T08:04:58.322Z,1003.94
2018-08-13T08:05:38.898Z,1004
2018-08-13T08:06:19.567Z,1003.97
2018-08-13T08:07:00.194Z,1003.98
2018-08-13T08:07:40.910Z,1003.94
2018-08-13T08:08:21.718Z,1003.93
2018-08-13T08:09:02.417Z,1003.93
2018-08-13T08:09:43.060Z,1003.94
2018-08-13T08:10:23.608Z,1003.91
2018-08-13T08:11:04.190Z,1003.9
2018-08-13T08:11:44.810Z,1003.91
2018-08-13T08:12:25.368Z,1003.97
2018-08-13T08:13:05.940Z,1003.88
2018-08-13T08:13:46.498Z,1003.93